createdAt,value
2022-10-21T00:01:31.318Z,12.87
2022-10-21T00:06:33.737Z,12.70
2022-10-21T00:11:36.247Z,11.67
2022-10-21T00:16:38.753Z,12.27
2022-10-21T00:21:42.480Z,11.23
2022-10-21T00:26:44.988Z,16.37
2022-10-21T00:31:47.458Z,14.57
2022-10-21T00:36:50.192Z,14.23
2022-10-21T00:41:52.668Z,17.47
2022-10-21T00:46:58.442Z,11.73
2022-10-21T00:52:03.497Z,11.80
2022-10-21T00:57:06.620Z,10.20
2022-10-21T01:02:09.095Z,16.23
2022-10-21T01:07:12.300Z,15.67
2022-10-21T01:12:41.021Z,11.33
2022-10-21T01:18:04.996Z,12.60
2022-10-21T01:23:35.540Z,12.43
2022-10-21T01:29:06.217Z,13.77
2022-10-21T01:34:11.862Z,13.80
2022-10-21T01:39:27.863Z,14.10
2022-10-21T01:44:53.427Z,10.93
2022-10-21T01:50:02.214Z,13.43
2022-10-21T01:55:10.220Z,14.10
2022-10-21T02:00:13.192Z,9.27
2022-10-21T02:05:30.428Z,12.37
2022-10-21T02:10:37.430Z,13.00
2022-10-21T02:15:42.200Z,14.57
2022-10-21T02:20:50.089Z,15.57
2022-10-21T02:25:52.982Z,15.67
2022-10-21T02:31:21.538Z,12.50
2022-10-21T02:36:53.512Z,11.10
2022-10-21T02:41:57.989Z,14.67
2022-10-21T02:47:00.535Z,16.53
2022-10-21T02:52:03.137Z,14.43
2022-10-21T02:57:05.652Z,14.53
2022-10-21T03:02:08.055Z,12.07
2022-10-21T03:07:10.462Z,14.50
2022-10-21T03:12:12.958Z,11.40
2022-10-21T03:17:15.491Z,17.20
2022-10-21T03:22:18.160Z,12.33
2022-10-21T03:27:20.677Z,15.40
2022-10-21T03:32:23.193Z,17.87
2022-10-21T03:37:25.965Z,14.10
2022-10-21T03:42:29.125Z,17.33
2022-10-21T03:47:33.299Z,11.87
2022-10-21T03:52:35.909Z,14.23
2022-10-21T03:57:38.845Z,10.07
2022-10-21T04:02:41.641Z,15.60
2022-10-21T04:07:46.078Z,11.47
2022-10-21T04:12:50.529Z,10.97
2022-10-21T04:17:53.095Z,18.83
2022-10-21T04:22:55.746Z,13.07
2022-10-21T04:27:58.137Z,17.70
2022-10-21T04:33:00.565Z,13.73
2022-10-21T04:38:03.053Z,10.10
2022-10-21T04:43:05.552Z,9.67
2022-10-21T04:48:08.319Z,9.03
2022-10-21T04:53:11.039Z,8.40
2022-10-21T04:58:13.854Z,11.03
2022-10-21T05:03:18.847Z,12.37
2022-10-21T05:08:21.373Z,19.83
2022-10-21T05:13:23.850Z,14.10
2022-10-21T05:18:26.752Z,14.73
2022-10-21T05:23:29.184Z,15.80
2022-10-21T05:28:31.630Z,12.10
2022-10-21T05:33:34.447Z,19.03
2022-10-21T05:38:36.912Z,19.87
2022-10-21T05:43:39.303Z,15.27
2022-10-21T05:48:41.871Z,12.83
2022-10-21T05:53:44.343Z,14.83
2022-10-21T05:58:46.800Z,16.23
2022-10-21T06:03:49.202Z,16.93
2022-10-21T06:08:52.083Z,20.30
2022-10-21T06:13:54.687Z,17.97
2022-10-21T06:18:57.167Z,13.57
2022-10-21T06:23:59.770Z,14.60
2022-10-21T06:29:02.260Z,12.93
2022-10-21T06:34:04.797Z,12.83
2022-10-21T06:39:07.910Z,14.63
2022-10-21T06:44:10.510Z,15.77
2022-10-21T06:49:13.118Z,14.23
2022-10-21T06:54:15.591Z,22.27
2022-10-21T06:59:18.046Z,13.27
2022-10-21T07:04:20.515Z,15.40
2022-10-21T07:09:23.234Z,17.70
2022-10-21T07:14:25.702Z,21.10
2022-10-21T07:19:28.660Z,18.40
2022-10-21T07:24:31.121Z,18.47
2022-10-21T07:29:33.762Z,18.23
2022-10-21T07:34:36.182Z,17.73
2022-10-21T07:39:38.771Z,20.07
2022-10-21T07:44:41.371Z,11.93
2022-10-21T07:49:43.819Z,17.13
2022-10-21T07:54:46.459Z,13.97
2022-10-21T07:59:48.947Z,16.10
2022-10-21T08:04:54.147Z,17.40
2022-10-21T08:09:57.935Z,12.97
2022-10-21T08:15:00.303Z,20.73
2022-10-21T08:20:02.893Z,17.13
2022-10-21T08:25:05.731Z,15.27
2022-10-21T08:30:08.592Z,19.00
2022-10-21T08:35:11.140Z,16.67
2022-10-21T08:40:13.607Z,13.97
2022-10-21T08:45:33.839Z,16.80
2022-10-21T08:50:41.414Z,13.20
2022-10-21T08:55:46.066Z,16.67
2022-10-21T09:00:48.559Z,16.00
2022-10-21T09:06:21.720Z,13.20
2022-10-21T09:11:45.636Z,16.73
2022-10-21T09:16:56.995Z,14.83
2022-10-21T09:22:47.000Z,22.33
2022-10-21T09:27:56.554Z,14.00
2022-10-21T09:33:00.895Z,19.63
2022-10-21T09:38:31.210Z,14.67
2022-10-21T09:43:33.567Z,20.00
2022-10-21T09:49:06.909Z,15.87
2022-10-21T09:54:13.524Z,22.53
2022-10-21T09:59:21.393Z,24.03
2022-10-21T10:04:26.617Z,25.37
2022-10-21T10:09:33.918Z,9.93
2022-10-21T10:14:39.303Z,17.57
2022-10-21T10:19:41.704Z,14.67
2022-10-21T10:24:45.260Z,22.30
2022-10-21T10:29:56.348Z,13.93
2022-10-21T10:35:05.754Z,14.03
2022-10-21T10:40:10.697Z,15.10
2022-10-21T10:45:16.522Z,11.87
2022-10-21T10:50:37.797Z,19.93
2022-10-21T10:55:44.908Z,14.87
2022-10-21T11:00:51.704Z,17.87
2022-10-21T11:06:01.415Z,8.97
2022-10-21T11:11:07.534Z,14.97
2022-10-21T11:16:50.473Z,11.17
2022-10-21T11:22:35.243Z,8.60
2022-10-21T11:27:55.860Z,10.30
2022-10-21T11:33:11.062Z,11.13
2022-10-21T11:38:37.604Z,14.37
2022-10-21T11:43:46.836Z,11.50
2022-10-21T11:48:52.087Z,14.77
2022-10-21T11:54:26.599Z,16.97
2022-10-21T12:00:00.121Z,10.43
2022-10-21T12:05:15.709Z,15.50
2022-10-21T12:10:40.020Z,10.63
2022-10-21T12:15:48.105Z,41.70
2022-10-21T12:20:56.091Z,18.13
2022-10-21T12:26:31.253Z,20.60
2022-10-21T12:31:58.664Z,23.57
2022-10-21T12:37:02.146Z,23.13
2022-10-21T12:42:18.776Z,23.33
2022-10-21T12:47:25.758Z,22.03
2022-10-21T12:52:28.219Z,28.13
2022-10-21T12:57:35.369Z,24.30
2022-10-21T13:02:56.475Z,24.07
2022-10-21T13:08:22.901Z,29.30
2022-10-21T13:13:40.779Z,22.20
2022-10-21T13:18:59.093Z,23.33
2022-10-21T13:24:13.636Z,25.13
2022-10-21T13:29:45.865Z,33.97
2022-10-21T13:34:51.493Z,30.17
2022-10-21T13:39:57.233Z,35.07
2022-10-21T13:45:07.547Z,25.97
2022-10-21T13:50:10.032Z,22.93
2022-10-21T13:55:22.115Z,26.00
2022-10-21T14:00:30.814Z,27.60
2022-10-21T14:05:41.080Z,25.30
2022-10-21T14:10:47.551Z,13.80
2022-10-21T14:15:51.295Z,9.83
2022-10-21T14:20:54.254Z,11.80
2022-10-21T14:26:05.081Z,7.80
2022-10-21T14:31:12.236Z,26.17
2022-10-21T14:36:20.625Z,27.77
2022-10-21T14:41:34.358Z,17.80
2022-10-21T14:46:48.350Z,21.53
2022-10-21T14:51:57.338Z,21.57
2022-10-21T14:57:01.472Z,19.57
2022-10-21T15:02:05.000Z,19.93
2022-10-21T15:07:16.958Z,21.93
2022-10-21T15:12:19.684Z,23.10
2022-10-21T15:17:23.301Z,22.87
2022-10-21T15:22:25.649Z,29.30
2022-10-21T15:27:36.611Z,51.80
2022-10-21T15:32:39.883Z,31.67
2022-10-21T15:37:42.513Z,38.83
2022-10-21T15:42:46.099Z,32.57
2022-10-21T15:47:52.891Z,14.33
2022-10-21T15:57:58.545Z,17.67
2022-10-21T16:03:01.490Z,20.53
2022-10-21T16:08:04.090Z,22.90
2022-10-21T16:13:06.508Z,23.17
2022-10-21T16:18:14.118Z,24.50
2022-10-21T16:23:16.450Z,15.20
2022-10-21T16:28:18.856Z,29.07
2022-10-21T16:33:21.387Z,15.60
2022-10-21T16:38:23.959Z,47.17
2022-10-21T16:43:26.396Z,34.67
2022-10-21T16:48:28.826Z,26.10
2022-10-21T16:53:31.219Z,24.63
2022-10-21T16:58:33.812Z,27.83
2022-10-21T17:03:36.637Z,33.67
2022-10-21T17:08:39.143Z,37.13
2022-10-21T17:13:45.278Z,29.10
2022-10-21T17:18:48.391Z,20.53
2022-10-21T17:23:51.791Z,23.83
2022-10-21T17:28:54.192Z,25.37
2022-10-21T17:33:59.622Z,20.97
2022-10-21T17:39:02.746Z,20.50
2022-10-21T17:44:08.387Z,26.47
2022-10-21T17:49:10.862Z,19.87
2022-10-21T17:54:13.197Z,24.77
2022-10-21T17:59:15.644Z,39.33
2022-10-21T18:04:18.067Z,42.43
2022-10-21T18:09:20.843Z,28.53
2022-10-21T18:14:23.797Z,37.10
2022-10-21T18:19:26.774Z,33.70
2022-10-21T18:24:29.397Z,35.90
2022-10-21T18:29:32.788Z,37.50
2022-10-21T18:34:35.577Z,32.00
2022-10-21T18:39:38.310Z,34.93
2022-10-21T18:44:41.010Z,38.27
2022-10-21T18:49:43.999Z,38.63
2022-10-21T18:54:46.907Z,38.23
2022-10-21T18:59:49.668Z,40.17
2022-10-21T19:04:52.709Z,37.77
2022-10-21T19:09:56.663Z,39.13
2022-10-21T19:14:59.681Z,44.93
2022-10-21T19:20:04.088Z,36.63
2022-10-21T19:25:07.630Z,40.17
2022-10-21T19:30:11.163Z,43.37
2022-10-21T19:35:13.848Z,33.17
2022-10-21T19:40:16.894Z,38.43
2022-10-21T19:45:19.975Z,36.70
2022-10-21T19:50:22.794Z,32.57
2022-10-21T19:55:25.552Z,32.13
2022-10-21T20:00:28.292Z,28.27
2022-10-21T20:05:34.444Z,29.00
2022-10-21T20:10:37.101Z,27.87
2022-10-21T20:15:47.315Z,21.57
2022-10-21T20:20:50.164Z,22.87
2022-10-21T20:25:57.974Z,22.33
2022-10-21T20:31:08.378Z,26.00
2022-10-21T20:36:15.794Z,24.80
2022-10-21T20:41:22.432Z,20.97
2022-10-21T20:46:25.934Z,26.27
2022-10-21T20:51:30.088Z,22.53
2022-10-21T20:56:35.265Z,21.73
2022-10-21T21:01:41.928Z,22.03
2022-10-21T21:06:46.824Z,20.20
2022-10-21T21:11:49.267Z,25.00
2022-10-21T21:16:51.722Z,22.30
2022-10-21T21:21:54.339Z,26.97
2022-10-21T21:26:56.897Z,21.97
2022-10-21T21:31:59.550Z,24.27
2022-10-21T21:37:02.064Z,28.57
2022-10-21T21:42:04.618Z,24.87
2022-10-21T21:47:07.333Z,14.03
2022-10-21T21:52:09.730Z,19.30
2022-10-21T21:57:28.546Z,21.73
2022-10-21T22:02:31.216Z,18.23
2022-10-21T22:07:33.744Z,19.77
2022-10-21T22:12:36.163Z,16.43
2022-10-21T22:17:39.164Z,14.50
2022-10-21T22:22:41.815Z,14.23
2022-10-21T22:27:45.120Z,15.50
2022-10-21T22:32:47.531Z,11.20
2022-10-21T22:37:49.865Z,12.60
2022-10-21T22:42:52.443Z,12.13
2022-10-21T22:47:55.106Z,14.10
2022-10-21T22:52:57.640Z,12.47
2022-10-21T22:58:00.030Z,15.90
2022-10-21T23:03:06.042Z,14.67
2022-10-21T23:08:11.601Z,23.40
2022-10-21T23:13:14.135Z,20.23
2022-10-21T23:18:17.638Z,18.73
2022-10-21T23:23:20.119Z,16.87
2022-10-21T23:28:22.543Z,22.13
2022-10-21T23:33:25.644Z,25.07
2022-10-21T23:38:28.201Z,19.27
2022-10-21T23:43:30.595Z,26.00
2022-10-21T23:48:33.169Z,24.53
2022-10-21T23:53:35.702Z,28.13
2022-10-21T23:58:38.286Z,19.47
